sensor_id;sensor_type;location;lat;lon;timestamp;P1;durP1;ratioP1;P2;durP2;ratioP2
54460;SDS011;40371;49.414;11.010;2023-02-14T00:00:40;29.00;;;20.93;;
54460;SDS011;40371;49.414;11.010;2023-02-14T00:03:06;26.53;;;20.00;;
54460;SDS011;40371;49.414;11.010;2023-02-14T00:05:32;27.53;;;21.03;;
54460;SDS011;40371;49.414;11.010;2023-02-14T00:07:57;30.43;;;21.87;;
54460;SDS011;40371;49.414;11.010;2023-02-14T00:10:23;27.73;;;20.43;;
54460;SDS011;40371;49.414;11.010;2023-02-14T00:12:48;29.17;;;21.10;;
54460;SDS011;40371;49.414;11.010;2023-02-14T00:15:14;28.33;;;20.70;;
54460;SDS011;40371;49.414;11.010;2023-02-14T00:17:52;30.63;;;22.57;;
54460;SDS011;40371;49.414;11.010;2023-02-14T00:20:19;27.33;;;21.03;;
54460;SDS011;40371;49.414;11.010;2023-02-14T00:22:49;31.33;;;22.13;;
54460;SDS011;40371;49.414;11.010;2023-02-14T00:25:14;30.27;;;21.60;;
54460;SDS011;40371;49.414;11.010;2023-02-14T00:27:40;28.00;;;21.57;;
54460;SDS011;40371;49.414;11.010;2023-02-14T00:30:06;27.90;;;19.80;;
54460;SDS011;40371;49.414;11.010;2023-02-14T00:32:33;30.37;;;22.43;;
54460;SDS011;40371;49.414;11.010;2023-02-14T00:35:00;31.03;;;22.73;;
54460;SDS011;40371;49.414;11.010;2023-02-14T00:37:26;30.13;;;23.00;;
54460;SDS011;40371;49.414;11.010;2023-02-14T00:39:51;33.03;;;22.43;;
54460;SDS011;40371;49.414;11.010;2023-02-14T00:42:17;31.67;;;22.57;;
54460;SDS011;40371;49.414;11.010;2023-02-14T00:44:44;31.23;;;23.43;;
54460;SDS011;40371;49.414;11.010;2023-02-14T00:47:09;27.67;;;20.83;;
54460;SDS011;40371;49.414;11.010;2023-02-14T00:49:35;28.30;;;21.50;;
54460;SDS011;40371;49.414;11.010;2023-02-14T00:52:01;30.90;;;22.90;;
54460;SDS011;40371;49.414;11.010;2023-02-14T00:54:29;31.30;;;22.80;;
54460;SDS011;40371;49.414;11.010;2023-02-14T00:56:57;28.37;;;22.30;;
54460;SDS011;40371;49.414;11.010;2023-02-14T00:59:23;27.93;;;21.80;;
54460;SDS011;40371;49.414;11.010;2023-02-14T01:01:48;30.77;;;22.43;;
54460;SDS011;40371;49.414;11.010;2023-02-14T01:04:14;30.90;;;22.93;;
54460;SDS011;40371;49.414;11.010;2023-02-14T01:06:39;31.53;;;22.73;;
54460;SDS011;40371;49.414;11.010;2023-02-14T01:09:05;31.73;;;23.43;;
54460;SDS011;40371;49.414;11.010;2023-02-14T01:11:31;35.37;;;24.17;;
54460;SDS011;40371;49.414;11.010;2023-02-14T01:13:58;32.70;;;24.00;;
54460;SDS011;40371;49.414;11.010;2023-02-14T01:16:25;27.73;;;22.00;;
54460;SDS011;40371;49.414;11.010;2023-02-14T01:18:53;27.73;;;21.63;;
54460;SDS011;40371;49.414;11.010;2023-02-14T01:21:21;31.73;;;24.07;;
54460;SDS011;40371;49.414;11.010;2023-02-14T01:23:49;28.73;;;21.17;;
54460;SDS011;40371;49.414;11.010;2023-02-14T01:26:17;29.67;;;21.70;;
54460;SDS011;40371;49.414;11.010;2023-02-14T01:28:43;34.93;;;24.27;;
54460;SDS011;40371;49.414;11.010;2023-02-14T01:31:10;28.87;;;21.57;;
54460;SDS011;40371;49.414;11.010;2023-02-14T01:33:38;33.30;;;22.07;;
54460;SDS011;40371;49.414;11.010;2023-02-14T01:36:05;30.87;;;23.13;;
54460;SDS011;40371;49.414;11.010;2023-02-14T01:38:31;32.33;;;22.30;;
54460;SDS011;40371;49.414;11.010;2023-02-14T01:40:56;30.60;;;22.97;;
54460;SDS011;40371;49.414;11.010;2023-02-14T01:43:22;28.90;;;22.87;;
54460;SDS011;40371;49.414;11.010;2023-02-14T01:45:48;33.87;;;24.03;;
54460;SDS011;40371;49.414;11.010;2023-02-14T01:48:14;31.97;;;24.03;;
54460;SDS011;40371;49.414;11.010;2023-02-14T01:50:42;34.50;;;24.33;;
54460;SDS011;40371;49.414;11.010;2023-02-14T01:53:15;32.20;;;23.97;;
54460;SDS011;40371;49.414;11.010;2023-02-14T01:55:50;34.37;;;25.07;;
54460;SDS011;40371;49.414;11.010;2023-02-14T01:58:24;35.10;;;24.60;;
54460;SDS011;40371;49.414;11.010;2023-02-14T02:00:52;33.50;;;24.27;;
54460;SDS011;40371;49.414;11.010;2023-02-14T02:03:28;33.83;;;24.80;;
54460;SDS011;40371;49.414;11.010;2023-02-14T02:06:16;34.57;;;24.60;;
54460;SDS011;40371;49.414;11.010;2023-02-14T02:08:51;32.87;;;24.30;;
54460;SDS011;40371;49.414;11.010;2023-02-14T02:11:32;33.57;;;23.93;;
54460;SDS011;40371;49.414;11.010;2023-02-14T02:13:58;34.83;;;24.87;;
54460;SDS011;40371;49.414;11.010;2023-02-14T02:16:28;35.40;;;24.73;;
54460;SDS011;40371;49.414;11.010;2023-02-14T02:30:08;35.93;;;25.23;;
54460;SDS011;40371;49.414;11.010;2023-02-14T02:38:45;36.70;;;24.97;;
54460;SDS011;40371;49.414;11.010;2023-02-14T02:41:15;39.07;;;25.70;;
54460;SDS011;40371;49.414;11.010;2023-02-14T02:46:40;41.00;;;26.90;;
54460;SDS011;40371;49.414;11.010;2023-02-14T02:52:47;39.97;;;26.00;;
54460;SDS011;40371;49.414;11.010;2023-02-14T02:55:44;36.93;;;24.10;;
54460;SDS011;40371;49.414;11.010;2023-02-14T03:01:35;37.53;;;26.07;;
54460;SDS011;40371;49.414;11.010;2023-02-14T03:04:07;36.57;;;26.83;;
54460;SDS011;40371;49.414;11.010;2023-02-14T03:06:55;39.10;;;26.60;;
54460;SDS011;40371;49.414;11.010;2023-02-14T03:23:19;42.03;;;26.87;;
54460;SDS011;40371;49.414;11.010;2023-02-14T03:25:54;37.17;;;24.93;;
54460;SDS011;40371;49.414;11.010;2023-02-14T03:34:33;40.57;;;25.60;;
54460;SDS011;40371;49.414;11.010;2023-02-14T03:39:44;37.07;;;25.30;;
54460;SDS011;40371;49.414;11.010;2023-02-14T03:42:21;34.93;;;24.33;;
54460;SDS011;40371;49.414;11.010;2023-02-14T03:44:51;38.30;;;24.90;;
54460;SDS011;40371;49.414;11.010;2023-02-14T03:47:23;37.53;;;24.77;;
54460;SDS011;40371;49.414;11.010;2023-02-14T03:49:54;36.37;;;24.43;;
54460;SDS011;40371;49.414;11.010;2023-02-14T03:52:23;34.93;;;23.10;;
54460;SDS011;40371;49.414;11.010;2023-02-14T03:54:51;35.93;;;24.33;;
54460;SDS011;40371;49.414;11.010;2023-02-14T03:57:22;35.67;;;24.43;;
54460;SDS011;40371;49.414;11.010;2023-02-14T03:59:56;37.23;;;23.67;;
54460;SDS011;40371;49.414;11.010;2023-02-14T04:02:24;35.57;;;25.23;;
54460;SDS011;40371;49.414;11.010;2023-02-14T04:04:55;34.83;;;23.93;;
54460;SDS011;40371;49.414;11.010;2023-02-14T04:07:23;37.63;;;24.77;;
54460;SDS011;40371;49.414;11.010;2023-02-14T04:09:49;35.07;;;24.17;;
54460;SDS011;40371;49.414;11.010;2023-02-14T04:12:16;36.60;;;24.33;;
54460;SDS011;40371;49.414;11.010;2023-02-14T04:14:44;36.23;;;22.77;;
54460;SDS011;40371;49.414;11.010;2023-02-14T04:17:10;38.60;;;24.97;;
54460;SDS011;40371;49.414;11.010;2023-02-14T04:19:54;41.27;;;25.13;;
54460;SDS011;40371;49.414;11.010;2023-02-14T04:22:19;32.43;;;23.47;;
54460;SDS011;40371;49.414;11.010;2023-02-14T04:24:45;37.83;;;24.77;;
54460;SDS011;40371;49.414;11.010;2023-02-14T04:27:10;39.73;;;24.00;;
54460;SDS011;40371;49.414;11.010;2023-02-14T04:29:43;38.07;;;23.37;;
54460;SDS011;40371;49.414;11.010;2023-02-14T04:32:17;36.43;;;22.97;;
54460;SDS011;40371;49.414;11.010;2023-02-14T04:34:45;33.93;;;22.73;;
54460;SDS011;40371;49.414;11.010;2023-02-14T04:37:11;34.50;;;23.63;;
54460;SDS011;40371;49.414;11.010;2023-02-14T04:39:38;34.37;;;23.47;;
54460;SDS011;40371;49.414;11.010;2023-02-14T04:42:04;34.57;;;22.80;;
54460;SDS011;40371;49.414;11.010;2023-02-14T04:44:30;36.63;;;23.23;;
54460;SDS011;40371;49.414;11.010;2023-02-14T04:46:57;34.90;;;23.17;;
54460;SDS011;40371;49.414;11.010;2023-02-14T04:49:23;34.57;;;22.93;;
54460;SDS011;40371;49.414;11.010;2023-02-14T04:51:49;34.80;;;24.17;;
54460;SDS011;40371;49.414;11.010;2023-02-14T04:54:14;36.33;;;22.77;;
54460;SDS011;40371;49.414;11.010;2023-02-14T04:56:40;35.43;;;23.00;;
54460;SDS011;40371;49.414;11.010;2023-02-14T04:59:06;37.80;;;23.27;;
54460;SDS011;40371;49.414;11.010;2023-02-14T05:01:31;35.53;;;23.63;;
54460;SDS011;40371;49.414;11.010;2023-02-14T05:03:57;32.57;;;22.20;;
54460;SDS011;40371;49.414;11.010;2023-02-14T05:06:23;30.57;;;20.80;;
54460;SDS011;40371;49.414;11.010;2023-02-14T05:08:48;31.87;;;21.70;;
54460;SDS011;40371;49.414;11.010;2023-02-14T05:11:14;32.87;;;22.73;;
54460;SDS011;40371;49.414;11.010;2023-02-14T05:13:39;36.03;;;23.83;;
54460;SDS011;40371;49.414;11.010;2023-02-14T05:16:05;34.10;;;22.10;;
54460;SDS011;40371;49.414;11.010;2023-02-14T05:18:31;35.80;;;23.47;;
54460;SDS011;40371;49.414;11.010;2023-02-14T05:20:56;34.80;;;22.23;;
54460;SDS011;40371;49.414;11.010;2023-02-14T05:23:22;35.37;;;23.60;;
54460;SDS011;40371;49.414;11.010;2023-02-14T05:25:48;37.60;;;23.47;;
54460;SDS011;40371;49.414;11.010;2023-02-14T05:28:14;37.73;;;23.90;;
54460;SDS011;40371;49.414;11.010;2023-02-14T05:30:39;39.77;;;25.03;;
54460;SDS011;40371;49.414;11.010;2023-02-14T05:33:05;38.70;;;24.07;;
54460;SDS011;40371;49.414;11.010;2023-02-14T05:35:31;37.20;;;24.53;;
54460;SDS011;40371;49.414;11.010;2023-02-14T05:37:57;36.63;;;24.00;;
54460;SDS011;40371;49.414;11.010;2023-02-14T05:40:23;38.63;;;24.60;;
54460;SDS011;40371;49.414;11.010;2023-02-14T05:42:51;36.80;;;23.37;;
54460;SDS011;40371;49.414;11.010;2023-02-14T05:45:17;39.93;;;24.73;;
54460;SDS011;40371;49.414;11.010;2023-02-14T05:47:42;38.03;;;23.23;;
54460;SDS011;40371;49.414;11.010;2023-02-14T05:50:08;37.07;;;23.57;;
54460;SDS011;40371;49.414;11.010;2023-02-14T05:52:35;39.93;;;24.67;;
54460;SDS011;40371;49.414;11.010;2023-02-14T05:55:01;38.47;;;25.27;;
54460;SDS011;40371;49.414;11.010;2023-02-14T05:57:26;36.07;;;23.20;;
54460;SDS011;40371;49.414;11.010;2023-02-14T05:59:52;35.53;;;22.87;;
54460;SDS011;40371;49.414;11.010;2023-02-14T06:02:17;39.73;;;23.30;;
54460;SDS011;40371;49.414;11.010;2023-02-14T06:04:43;40.43;;;24.43;;
54460;SDS011;40371;49.414;11.010;2023-02-14T06:07:08;37.33;;;23.30;;
54460;SDS011;40371;49.414;11.010;2023-02-14T06:09:34;38.57;;;22.20;;
54460;SDS011;40371;49.414;11.010;2023-02-14T06:12:00;40.57;;;23.10;;
54460;SDS011;40371;49.414;11.010;2023-02-14T06:14:25;38.30;;;22.73;;
54460;SDS011;40371;49.414;11.010;2023-02-14T06:16:51;37.97;;;22.70;;
54460;SDS011;40371;49.414;11.010;2023-02-14T06:19:16;38.40;;;22.67;;
54460;SDS011;40371;49.414;11.010;2023-02-14T06:21:42;34.30;;;21.20;;
54460;SDS011;40371;49.414;11.010;2023-02-14T06:24:08;35.33;;;21.70;;
54460;SDS011;40371;49.414;11.010;2023-02-14T06:26:33;39.30;;;22.13;;
54460;SDS011;40371;49.414;11.010;2023-02-14T06:29:00;39.87;;;22.73;;
54460;SDS011;40371;49.414;11.010;2023-02-14T06:31:26;42.83;;;23.53;;
54460;SDS011;40371;49.414;11.010;2023-02-14T06:33:52;39.40;;;23.53;;
54460;SDS011;40371;49.414;11.010;2023-02-14T06:36:18;37.97;;;22.50;;
54460;SDS011;40371;49.414;11.010;2023-02-14T06:38:44;39.10;;;22.47;;
54460;SDS011;40371;49.414;11.010;2023-02-14T06:41:12;39.10;;;22.70;;
54460;SDS011;40371;49.414;11.010;2023-02-14T06:43:42;38.87;;;22.47;;
54460;SDS011;40371;49.414;11.010;2023-02-14T06:46:08;40.37;;;23.10;;
54460;SDS011;40371;49.414;11.010;2023-02-14T06:48:35;35.93;;;20.73;;
54460;SDS011;40371;49.414;11.010;2023-02-14T06:51:00;38.00;;;22.63;;
54460;SDS011;40371;49.414;11.010;2023-02-14T06:53:26;39.00;;;22.97;;
54460;SDS011;40371;49.414;11.010;2023-02-14T06:55:52;35.53;;;21.53;;
54460;SDS011;40371;49.414;11.010;2023-02-14T06:58:18;36.50;;;20.63;;
54460;SDS011;40371;49.414;11.010;2023-02-14T07:00:44;30.70;;;19.03;;
54460;SDS011;40371;49.414;11.010;2023-02-14T07:03:10;35.63;;;20.40;;
54460;SDS011;40371;49.414;11.010;2023-02-14T07:05:36;36.97;;;20.97;;
54460;SDS011;40371;49.414;11.010;2023-02-14T07:08:02;36.10;;;20.23;;
54460;SDS011;40371;49.414;11.010;2023-02-14T07:10:27;39.93;;;20.27;;
54460;SDS011;40371;49.414;11.010;2023-02-14T07:12:53;40.17;;;22.13;;
54460;SDS011;40371;49.414;11.010;2023-02-14T07:15:18;38.67;;;20.00;;
54460;SDS011;40371;49.414;11.010;2023-02-14T07:17:44;33.53;;;20.20;;
54460;SDS011;40371;49.414;11.010;2023-02-14T07:20:10;33.00;;;19.50;;
54460;SDS011;40371;49.414;11.010;2023-02-14T07:22:37;36.40;;;20.63;;
54460;SDS011;40371;49.414;11.010;2023-02-14T07:25:03;34.47;;;19.63;;
54460;SDS011;40371;49.414;11.010;2023-02-14T07:27:30;39.27;;;19.87;;
54460;SDS011;40371;49.414;11.010;2023-02-14T07:29:56;33.43;;;20.63;;
54460;SDS011;40371;49.414;11.010;2023-02-14T07:32:22;36.83;;;19.57;;
54460;SDS011;40371;49.414;11.010;2023-02-14T07:34:48;38.87;;;20.80;;
54460;SDS011;40371;49.414;11.010;2023-02-14T07:37:14;33.50;;;18.73;;
54460;SDS011;40371;49.414;11.010;2023-02-14T07:39:41;38.53;;;18.20;;
54460;SDS011;40371;49.414;11.010;2023-02-14T07:42:07;33.30;;;19.57;;
54460;SDS011;40371;49.414;11.010;2023-02-14T07:44:33;33.77;;;20.00;;
54460;SDS011;40371;49.414;11.010;2023-02-14T07:46:59;33.90;;;19.17;;
54460;SDS011;40371;49.414;11.010;2023-02-14T07:49:24;33.07;;;18.57;;
54460;SDS011;40371;49.414;11.010;2023-02-14T07:51:56;31.30;;;19.83;;
54460;SDS011;40371;49.414;11.010;2023-02-14T07:54:22;31.53;;;18.87;;
54460;SDS011;40371;49.414;11.010;2023-02-14T07:56:48;28.73;;;18.30;;
54460;SDS011;40371;49.414;11.010;2023-02-14T07:59:13;30.87;;;17.53;;
54460;SDS011;40371;49.414;11.010;2023-02-14T08:01:39;28.00;;;16.47;;
54460;SDS011;40371;49.414;11.010;2023-02-14T08:04:05;30.87;;;18.67;;
54460;SDS011;40371;49.414;11.010;2023-02-14T08:06:31;29.03;;;17.47;;
54460;SDS011;40371;49.414;11.010;2023-02-14T08:08:56;32.30;;;17.90;;
54460;SDS011;40371;49.414;11.010;2023-02-14T08:11:22;31.23;;;17.87;;
54460;SDS011;40371;49.414;11.010;2023-02-14T08:14:06;26.67;;;16.30;;
54460;SDS011;40371;49.414;11.010;2023-02-14T08:16:32;29.00;;;18.30;;
54460;SDS011;40371;49.414;11.010;2023-02-14T08:18:58;28.27;;;17.53;;
54460;SDS011;40371;49.414;11.010;2023-02-14T08:21:25;28.73;;;18.00;;
54460;SDS011;40371;49.414;11.010;2023-02-14T08:23:51;30.50;;;18.50;;
54460;SDS011;40371;49.414;11.010;2023-02-14T08:26:16;38.67;;;17.73;;
54460;SDS011;40371;49.414;11.010;2023-02-14T08:28:45;26.60;;;16.40;;
54460;SDS011;40371;49.414;11.010;2023-02-14T08:31:11;30.03;;;17.30;;
54460;SDS011;40371;49.414;11.010;2023-02-14T08:33:36;25.00;;;16.53;;
54460;SDS011;40371;49.414;11.010;2023-02-14T08:36:02;29.10;;;16.60;;
54460;SDS011;40371;49.414;11.010;2023-02-14T08:38:28;28.80;;;17.73;;
54460;SDS011;40371;49.414;11.010;2023-02-14T08:41:00;31.57;;;17.40;;
54460;SDS011;40371;49.414;11.010;2023-02-14T08:43:25;29.30;;;17.30;;
54460;SDS011;40371;49.414;11.010;2023-02-14T08:45:51;31.03;;;18.73;;
54460;SDS011;40371;49.414;11.010;2023-02-14T08:48:17;30.50;;;18.23;;
54460;SDS011;40371;49.414;11.010;2023-02-14T08:50:43;27.90;;;16.33;;
54460;SDS011;40371;49.414;11.010;2023-02-14T08:53:09;30.30;;;17.77;;
54460;SDS011;40371;49.414;11.010;2023-02-14T08:55:36;27.60;;;16.67;;
54460;SDS011;40371;49.414;11.010;2023-02-14T08:58:02;31.70;;;17.53;;
54460;SDS011;40371;49.414;11.010;2023-02-14T09:00:29;26.00;;;16.40;;
54460;SDS011;40371;49.414;11.010;2023-02-14T09:02:56;25.33;;;15.87;;
54460;SDS011;40371;49.414;11.010;2023-02-14T09:05:22;26.40;;;16.80;;
54460;SDS011;40371;49.414;11.010;2023-02-14T09:07:48;28.27;;;15.77;;
54460;SDS011;40371;49.414;11.010;2023-02-14T09:10:14;22.73;;;14.97;;
54460;SDS011;40371;49.414;11.010;2023-02-14T09:12:41;34.03;;;17.43;;
54460;SDS011;40371;49.414;11.010;2023-02-14T09:15:07;27.33;;;15.90;;
54460;SDS011;40371;49.414;11.010;2023-02-14T09:17:33;24.30;;;16.47;;
54460;SDS011;40371;49.414;11.010;2023-02-14T09:19:59;25.70;;;14.70;;
54460;SDS011;40371;49.414;11.010;2023-02-14T09:22:25;28.90;;;16.97;;
54460;SDS011;40371;49.414;11.010;2023-02-14T09:24:51;24.77;;;15.93;;
54460;SDS011;40371;49.414;11.010;2023-02-14T09:27:17;24.87;;;15.83;;
54460;SDS011;40371;49.414;11.010;2023-02-14T09:29:42;27.27;;;16.20;;
54460;SDS011;40371;49.414;11.010;2023-02-14T09:32:08;24.50;;;15.93;;
54460;SDS011;40371;49.414;11.010;2023-02-14T09:34:33;23.43;;;15.83;;
54460;SDS011;40371;49.414;11.010;2023-02-14T09:36:59;26.20;;;16.53;;
54460;SDS011;40371;49.414;11.010;2023-02-14T09:39:25;23.43;;;15.63;;
54460;SDS011;40371;49.414;11.010;2023-02-14T09:44:54;23.80;;;15.50;;
54460;SDS011;40371;49.414;11.010;2023-02-14T09:47:29;25.00;;;16.90;;
54460;SDS011;40371;49.414;11.010;2023-02-14T09:50:16;25.77;;;17.43;;
54460;SDS011;40371;49.414;11.010;2023-02-14T09:52:54;24.67;;;15.40;;
54460;SDS011;40371;49.414;11.010;2023-02-14T09:55:41;25.73;;;14.97;;
54460;SDS011;40371;49.414;11.010;2023-02-14T09:58:23;22.43;;;14.93;;
54460;SDS011;40371;49.414;11.010;2023-02-14T10:01:24;27.40;;;14.73;;
54460;SDS011;40371;49.414;11.010;2023-02-14T10:04:02;22.93;;;15.07;;
54460;SDS011;40371;49.414;11.010;2023-02-14T10:06:52;29.13;;;18.23;;
54460;SDS011;40371;49.414;11.010;2023-02-14T10:09:37;22.80;;;14.57;;
54460;SDS011;40371;49.414;11.010;2023-02-14T10:12:22;21.90;;;15.10;;
54460;SDS011;40371;49.414;11.010;2023-02-14T10:14:59;24.57;;;14.93;;
54460;SDS011;40371;49.414;11.010;2023-02-14T10:20:04;24.30;;;16.20;;
54460;SDS011;40371;49.414;11.010;2023-02-14T10:22:42;24.80;;;15.40;;
54460;SDS011;40371;49.414;11.010;2023-02-14T10:25:20;20.97;;;14.97;;
54460;SDS011;40371;49.414;11.010;2023-02-14T10:27:50;23.20;;;15.80;;
54460;SDS011;40371;49.414;11.010;2023-02-14T10:30:20;24.70;;;15.90;;
54460;SDS011;40371;49.414;11.010;2023-02-14T10:32:55;21.47;;;14.43;;
54460;SDS011;40371;49.414;11.010;2023-02-14T10:35:35;22.23;;;15.47;;
54460;SDS011;40371;49.414;11.010;2023-02-14T10:38:29;24.30;;;16.00;;
54460;SDS011;40371;49.414;11.010;2023-02-14T10:44:19;24.10;;;16.10;;
54460;SDS011;40371;49.414;11.010;2023-02-14T10:47:02;24.60;;;16.23;;
54460;SDS011;40371;49.414;11.010;2023-02-14T10:52:07;36.27;;;26.70;;
54460;SDS011;40371;49.414;11.010;2023-02-14T10:54:41;37.67;;;23.87;;
54460;SDS011;40371;49.414;11.010;2023-02-14T10:57:24;27.50;;;18.00;;
54460;SDS011;40371;49.414;11.010;2023-02-14T10:59:58;22.80;;;15.33;;
54460;SDS011;40371;49.414;11.010;2023-02-14T11:02:29;21.63;;;15.60;;
54460;SDS011;40371;49.414;11.010;2023-02-14T11:05:06;27.33;;;18.77;;
54460;SDS011;40371;49.414;11.010;2023-02-14T11:07:43;20.23;;;14.37;;
54460;SDS011;40371;49.414;11.010;2023-02-14T11:10:10;29.30;;;21.07;;
54460;SDS011;40371;49.414;11.010;2023-02-14T11:12:38;27.50;;;18.63;;
54460;SDS011;40371;49.414;11.010;2023-02-14T11:15:09;30.63;;;20.67;;
54460;SDS011;40371;49.414;11.010;2023-02-14T11:18:07;25.53;;;18.30;;
54460;SDS011;40371;49.414;11.010;2023-02-14T11:20:40;27.13;;;18.93;;
54460;SDS011;40371;49.414;11.010;2023-02-14T11:23:27;24.13;;;16.37;;
54460;SDS011;40371;49.414;11.010;2023-02-14T11:25:55;20.93;;;15.00;;
54460;SDS011;40371;49.414;11.010;2023-02-14T11:28:21;23.80;;;16.67;;
54460;SDS011;40371;49.414;11.010;2023-02-14T11:30:47;34.60;;;24.47;;
54460;SDS011;40371;49.414;11.010;2023-02-14T11:33:34;26.87;;;18.33;;
54460;SDS011;40371;49.414;11.010;2023-02-14T11:36:04;24.73;;;16.57;;
54460;SDS011;40371;49.414;11.010;2023-02-14T11:38:35;26.60;;;19.63;;
54460;SDS011;40371;49.414;11.010;2023-02-14T11:41:05;28.30;;;20.47;;
54460;SDS011;40371;49.414;11.010;2023-02-14T11:43:36;24.37;;;16.80;;
54460;SDS011;40371;49.414;11.010;2023-02-14T11:46:14;25.27;;;16.93;;
54460;SDS011;40371;49.414;11.010;2023-02-14T11:48:53;17.93;;;13.40;;
54460;SDS011;40371;49.414;11.010;2023-02-14T11:51:26;20.03;;;14.60;;
54460;SDS011;40371;49.414;11.010;2023-02-14T11:53:55;17.00;;;12.40;;
54460;SDS011;40371;49.414;11.010;2023-02-14T11:56:42;17.43;;;13.27;;
54460;SDS011;40371;49.414;11.010;2023-02-14T11:59:13;17.17;;;13.30;;
54460;SDS011;40371;49.414;11.010;2023-02-14T12:02:21;17.73;;;11.77;;
54460;SDS011;40371;49.414;11.010;2023-02-14T12:04:58;19.90;;;12.53;;
54460;SDS011;40371;49.414;11.010;2023-02-14T12:07:28;15.50;;;11.93;;
54460;SDS011;40371;49.414;11.010;2023-02-14T12:10:05;17.37;;;12.87;;
54460;SDS011;40371;49.414;11.010;2023-02-14T12:12:34;15.37;;;11.13;;
54460;SDS011;40371;49.414;11.010;2023-02-14T12:18:36;13.77;;;9.90;;
54460;SDS011;40371;49.414;11.010;2023-02-14T12:23:39;18.47;;;11.27;;
54460;SDS011;40371;49.414;11.010;2023-02-14T12:26:29;17.53;;;11.60;;
54460;SDS011;40371;49.414;11.010;2023-02-14T12:29:22;17.43;;;12.57;;
54460;SDS011;40371;49.414;11.010;2023-02-14T12:31:53;17.67;;;11.83;;
54460;SDS011;40371;49.414;11.010;2023-02-14T12:34:24;15.37;;;11.33;;
54460;SDS011;40371;49.414;11.010;2023-02-14T12:37:09;14.20;;;11.13;;
54460;SDS011;40371;49.414;11.010;2023-02-14T12:42:36;14.40;;;11.27;;
54460;SDS011;40371;49.414;11.010;2023-02-14T12:53:55;14.90;;;10.67;;
54460;SDS011;40371;49.414;11.010;2023-02-14T13:07:07;15.33;;;11.77;;
54460;SDS011;40371;49.414;11.010;2023-02-14T13:09:40;13.07;;;10.67;;
54460;SDS011;40371;49.414;11.010;2023-02-14T13:12:32;16.23;;;12.40;;
54460;SDS011;40371;49.414;11.010;2023-02-14T13:17:55;14.40;;;10.10;;
54460;SDS011;40371;49.414;11.010;2023-02-14T13:23:19;13.77;;;11.60;;
54460;SDS011;40371;49.414;11.010;2023-02-14T13:28:38;13.20;;;10.63;;
54460;SDS011;40371;49.414;11.010;2023-02-14T13:31:20;13.37;;;9.87;;
54460;SDS011;40371;49.414;11.010;2023-02-14T13:33:50;13.90;;;10.33;;
54460;SDS011;40371;49.414;11.010;2023-02-14T13:36:19;13.20;;;10.23;;
54460;SDS011;40371;49.414;11.010;2023-02-14T13:38:47;14.53;;;9.77;;
54460;SDS011;40371;49.414;11.010;2023-02-14T13:41:18;13.03;;;9.23;;
54460;SDS011;40371;49.414;11.010;2023-02-14T13:47:05;14.10;;;10.33;;
54460;SDS011;40371;49.414;11.010;2023-02-14T13:51:51;12.77;;;10.13;;
54460;SDS011;40371;49.414;11.010;2023-02-14T13:54:27;13.97;;;9.70;;
54460;SDS011;40371;49.414;11.010;2023-02-14T13:56:56;13.73;;;10.67;;
54460;SDS011;40371;49.414;11.010;2023-02-14T13:59:24;12.63;;;9.87;;
54460;SDS011;40371;49.414;11.010;2023-02-14T14:01:58;11.63;;;9.37;;
54460;SDS011;40371;49.414;11.010;2023-02-14T14:04:52;12.47;;;9.10;;
54460;SDS011;40371;49.414;11.010;2023-02-14T14:07:19;14.20;;;10.47;;
54460;SDS011;40371;49.414;11.010;2023-02-14T14:09:55;15.47;;;11.00;;
54460;SDS011;40371;49.414;11.010;2023-02-14T14:17:33;12.90;;;10.17;;
54460;SDS011;40371;49.414;11.010;2023-02-14T14:19:59;16.77;;;10.80;;
54460;SDS011;40371;49.414;11.010;2023-02-14T14:22:28;14.70;;;10.70;;
54460;SDS011;40371;49.414;11.010;2023-02-14T14:24:55;14.07;;;10.33;;
54460;SDS011;40371;49.414;11.010;2023-02-14T14:27:30;14.57;;;10.83;;
54460;SDS011;40371;49.414;11.010;2023-02-14T14:29:59;12.63;;;10.03;;
54460;SDS011;40371;49.414;11.010;2023-02-14T14:32:46;12.53;;;10.10;;
54460;SDS011;40371;49.414;11.010;2023-02-14T14:35:16;13.40;;;10.90;;
54460;SDS011;40371;49.414;11.010;2023-02-14T14:37:54;13.23;;;10.30;;
54460;SDS011;40371;49.414;11.010;2023-02-14T14:40:26;15.50;;;11.07;;
54460;SDS011;40371;49.414;11.010;2023-02-14T14:42:55;14.00;;;10.70;;
54460;SDS011;40371;49.414;11.010;2023-02-14T14:45:29;17.83;;;12.93;;
54460;SDS011;40371;49.414;11.010;2023-02-14T14:47:56;15.47;;;11.70;;
54460;SDS011;40371;49.414;11.010;2023-02-14T14:50:28;18.97;;;13.03;;
54460;SDS011;40371;49.414;11.010;2023-02-14T14:52:58;18.17;;;13.43;;
54460;SDS011;40371;49.414;11.010;2023-02-14T14:55:27;16.43;;;12.13;;
54460;SDS011;40371;49.414;11.010;2023-02-14T14:57:56;17.67;;;11.83;;
54460;SDS011;40371;49.414;11.010;2023-02-14T15:02:59;16.77;;;12.40;;
54460;SDS011;40371;49.414;11.010;2023-02-14T15:05:26;16.60;;;11.43;;
54460;SDS011;40371;49.414;11.010;2023-02-14T15:07:54;13.90;;;10.80;;
54460;SDS011;40371;49.414;11.010;2023-02-14T15:10:28;15.87;;;11.47;;
54460;SDS011;40371;49.414;11.010;2023-02-14T15:12:56;15.20;;;11.90;;
54460;SDS011;40371;49.414;11.010;2023-02-14T15:15:41;20.53;;;12.73;;
54460;SDS011;40371;49.414;11.010;2023-02-14T15:18:13;15.10;;;12.03;;
54460;SDS011;40371;49.414;11.010;2023-02-14T15:20:39;16.60;;;11.27;;
54460;SDS011;40371;49.414;11.010;2023-02-14T15:23:06;16.20;;;11.43;;
54460;SDS011;40371;49.414;11.010;2023-02-14T15:25:40;14.27;;;11.03;;
54460;SDS011;40371;49.414;11.010;2023-02-14T15:28:12;21.43;;;12.50;;
54460;SDS011;40371;49.414;11.010;2023-02-14T15:30:56;16.10;;;11.73;;
54460;SDS011;40371;49.414;11.010;2023-02-14T15:33:23;15.63;;;11.77;;
54460;SDS011;40371;49.414;11.010;2023-02-14T15:35:49;14.93;;;12.47;;
54460;SDS011;40371;49.414;11.010;2023-02-14T15:38:15;17.67;;;11.17;;
54460;SDS011;40371;49.414;11.010;2023-02-14T15:40:42;15.97;;;11.07;;
54460;SDS011;40371;49.414;11.010;2023-02-14T15:45:50;18.77;;;12.63;;
54460;SDS011;40371;49.414;11.010;2023-02-14T15:48:30;17.77;;;12.73;;
54460;SDS011;40371;49.414;11.010;2023-02-14T15:50:58;15.83;;;12.63;;
54460;SDS011;40371;49.414;11.010;2023-02-14T15:53:41;20.07;;;13.33;;
54460;SDS011;40371;49.414;11.010;2023-02-14T15:56:20;17.80;;;12.40;;
54460;SDS011;40371;49.414;11.010;2023-02-14T15:58:50;18.30;;;12.67;;
54460;SDS011;40371;49.414;11.010;2023-02-14T16:01:24;16.27;;;11.50;;
54460;SDS011;40371;49.414;11.010;2023-02-14T16:03:51;14.37;;;12.47;;
54460;SDS011;40371;49.414;11.010;2023-02-14T16:06:30;14.37;;;11.80;;
54460;SDS011;40371;49.414;11.010;2023-02-14T16:09:24;16.87;;;12.43;;
54460;SDS011;40371;49.414;11.010;2023-02-14T16:11:52;15.37;;;11.57;;
54460;SDS011;40371;49.414;11.010;2023-02-14T16:14:28;19.23;;;12.50;;
54460;SDS011;40371;49.414;11.010;2023-02-14T16:16:59;14.03;;;11.70;;
54460;SDS011;40371;49.414;11.010;2023-02-14T16:19:35;15.20;;;11.87;;